sensor_id;sensor_type;location;lat;lon;timestamp;temperature;humidity
56374;DHT22;58212;47.034;7.376;2023-06-04T00:01:37;15.60;99.90
56374;DHT22;58212;47.034;7.376;2023-06-04T00:04:05;15.60;99.90
56374;DHT22;58212;47.034;7.376;2023-06-04T00:06:57;15.60;99.90
56374;DHT22;58212;47.034;7.376;2023-06-04T00:09:25;15.60;99.90
56374;DHT22;58212;47.034;7.376;2023-06-04T00:11:52;15.60;99.90
56374;DHT22;58212;47.034;7.376;2023-06-04T00:14:20;15.60;99.90
56374;DHT22;58212;47.034;7.376;2023-06-04T00:16:47;15.50;99.90
56374;DHT22;58212;47.034;7.376;2023-06-04T00:19:17;15.50;99.90
56374;DHT22;58212;47.034;7.376;2023-06-04T00:21:45;15.40;99.90
56374;DHT22;58212;47.034;7.376;2023-06-04T00:24:13;15.40;99.90
56374;DHT22;58212;47.034;7.376;2023-06-04T00:26:42;15.40;99.90
56374;DHT22;58212;47.034;7.376;2023-06-04T00:29:09;15.40;99.90
56374;DHT22;58212;47.034;7.376;2023-06-04T00:31:36;15.30;99.90
56374;DHT22;58212;47.034;7.376;2023-06-04T00:34:05;15.30;99.90
56374;DHT22;58212;47.034;7.376;2023-06-04T00:36:34;15.30;99.90
56374;DHT22;58212;47.034;7.376;2023-06-04T00:39:01;15.30;99.90
56374;DHT22;58212;47.034;7.376;2023-06-04T00:41:28;15.20;99.90
56374;DHT22;58212;47.034;7.376;2023-06-04T00:43:56;15.20;99.90
56374;DHT22;58212;47.034;7.376;2023-06-04T00:46:25;15.10;99.90
56374;DHT22;58212;47.034;7.376;2023-06-04T00:48:53;15.20;99.90
56374;DHT22;58212;47.034;7.376;2023-06-04T00:51:21;15.10;99.90
56374;DHT22;58212;47.034;7.376;2023-06-04T00:53:50;15.00;99.90
56374;DHT22;58212;47.034;7.376;2023-06-04T00:56:18;15.00;99.90
56374;DHT22;58212;47.034;7.376;2023-06-04T00:58:46;15.00;99.90
56374;DHT22;58212;47.034;7.376;2023-06-04T01:01:22;15.00;99.90
56374;DHT22;58212;47.034;7.376;2023-06-04T01:03:55;14.90;99.90
56374;DHT22;58212;47.034;7.376;2023-06-04T01:06:39;14.90;99.90
56374;DHT22;58212;47.034;7.376;2023-06-04T01:09:07;14.90;99.90
56374;DHT22;58212;47.034;7.376;2023-06-04T01:11:35;15.00;99.90
56374;DHT22;58212;47.034;7.376;2023-06-04T01:14:29;15.00;99.90
56374;DHT22;58212;47.034;7.376;2023-06-04T01:17:02;14.90;99.90
56374;DHT22;58212;47.034;7.376;2023-06-04T01:19:57;15.00;99.90
56374;DHT22;58212;47.034;7.376;2023-06-04T01:22:36;14.90;99.90
56374;DHT22;58212;47.034;7.376;2023-06-04T01:25:14;14.90;99.90
56374;DHT22;58212;47.034;7.376;2023-06-04T01:27:49;14.90;99.90
56374;DHT22;58212;47.034;7.376;2023-06-04T01:30:20;14.90;99.90
56374;DHT22;58212;47.034;7.376;2023-06-04T01:32:48;14.80;99.90
56374;DHT22;58212;47.034;7.376;2023-06-04T01:35:16;14.80;99.90
56374;DHT22;58212;47.034;7.376;2023-06-04T01:37:43;14.80;99.90
56374;DHT22;58212;47.034;7.376;2023-06-04T01:40:13;14.80;99.90
56374;DHT22;58212;47.034;7.376;2023-06-04T01:42:40;14.80;99.90
56374;DHT22;58212;47.034;7.376;2023-06-04T01:45:08;14.70;99.90
56374;DHT22;58212;47.034;7.376;2023-06-04T01:47:36;14.70;99.90
56374;DHT22;58212;47.034;7.376;2023-06-04T01:50:04;14.60;99.90
56374;DHT22;58212;47.034;7.376;2023-06-04T01:52:38;14.60;99.90
56374;DHT22;58212;47.034;7.376;2023-06-04T01:55:07;14.60;99.90
56374;DHT22;58212;47.034;7.376;2023-06-04T01:57:35;14.60;99.90
56374;DHT22;58212;47.034;7.376;2023-06-04T02:00:03;14.50;99.90
56374;DHT22;58212;47.034;7.376;2023-06-04T02:02:39;14.50;99.90
56374;DHT22;58212;47.034;7.376;2023-06-04T02:05:09;14.50;99.90
56374;DHT22;58212;47.034;7.376;2023-06-04T02:07:37;14.60;99.90
56374;DHT22;58212;47.034;7.376;2023-06-04T02:10:06;14.60;99.90
56374;DHT22;58212;47.034;7.376;2023-06-04T02:12:37;14.60;99.90
56374;DHT22;58212;47.034;7.376;2023-06-04T02:15:05;14.60;99.90
56374;DHT22;58212;47.034;7.376;2023-06-04T02:20:32;14.50;99.90
56374;DHT22;58212;47.034;7.376;2023-06-04T02:22:59;14.50;99.90
56374;DHT22;58212;47.034;7.376;2023-06-04T02:25:26;14.50;99.90
56374;DHT22;58212;47.034;7.376;2023-06-04T02:27:55;14.50;99.90
56374;DHT22;58212;47.034;7.376;2023-06-04T02:30:22;14.50;99.90
56374;DHT22;58212;47.034;7.376;2023-06-04T02:32:49;14.40;99.90
56374;DHT22;58212;47.034;7.376;2023-06-04T02:35:16;14.40;99.90
56374;DHT22;58212;47.034;7.376;2023-06-04T02:37:43;14.30;99.90
56374;DHT22;58212;47.034;7.376;2023-06-04T02:40:11;14.40;99.90
56374;DHT22;58212;47.034;7.376;2023-06-04T02:42:38;14.30;99.90
56374;DHT22;58212;47.034;7.376;2023-06-04T02:45:08;14.30;99.90
56374;DHT22;58212;47.034;7.376;2023-06-04T02:47:35;14.30;99.90
56374;DHT22;58212;47.034;7.376;2023-06-04T02:50:02;14.30;99.90
56374;DHT22;58212;47.034;7.376;2023-06-04T02:52:30;14.30;99.90
56374;DHT22;58212;47.034;7.376;2023-06-04T02:54:59;14.30;99.90
56374;DHT22;58212;47.034;7.376;2023-06-04T02:57:29;14.30;99.90
56374;DHT22;58212;47.034;7.376;2023-06-04T02:59:57;14.20;99.90
56374;DHT22;58212;47.034;7.376;2023-06-04T03:02:25;14.20;99.90
56374;DHT22;58212;47.034;7.376;2023-06-04T03:04:53;14.20;99.90
56374;DHT22;58212;47.034;7.376;2023-06-04T03:07:21;14.20;99.90
56374;DHT22;58212;47.034;7.376;2023-06-04T03:10:04;14.10;99.90
56374;DHT22;58212;47.034;7.376;2023-06-04T03:12:31;14.10;99.90
56374;DHT22;58212;47.034;7.376;2023-06-04T03:14:59;14.10;99.90
56374;DHT22;58212;47.034;7.376;2023-06-04T03:17:27;14.10;99.90
56374;DHT22;58212;47.034;7.376;2023-06-04T03:19:58;14.10;99.90
56374;DHT22;58212;47.034;7.376;2023-06-04T03:22:26;14.10;99.90
56374;DHT22;58212;47.034;7.376;2023-06-04T03:24:54;14.10;99.90
56374;DHT22;58212;47.034;7.376;2023-06-04T03:27:46;14.10;99.90
56374;DHT22;58212;47.034;7.376;2023-06-04T03:30:14;14.00;99.90
56374;DHT22;58212;47.034;7.376;2023-06-04T03:33:07;14.00;99.90
56374;DHT22;58212;47.034;7.376;2023-06-04T03:35:34;14.10;99.90
56374;DHT22;58212;47.034;7.376;2023-06-04T03:38:01;14.10;99.90
56374;DHT22;58212;47.034;7.376;2023-06-04T03:40:31;14.00;99.90
56374;DHT22;58212;47.034;7.376;2023-06-04T03:42:58;14.00;99.90
56374;DHT22;58212;47.034;7.376;2023-06-04T03:45:29;14.00;99.90
56374;DHT22;58212;47.034;7.376;2023-06-04T03:47:56;14.00;99.90
56374;DHT22;58212;47.034;7.376;2023-06-04T03:50:29;14.10;99.90
56374;DHT22;58212;47.034;7.376;2023-06-04T03:52:56;14.10;99.90
56374;DHT22;58212;47.034;7.376;2023-06-04T03:55:24;14.10;99.90
56374;DHT22;58212;47.034;7.376;2023-06-04T03:57:52;14.00;99.90
56374;DHT22;58212;47.034;7.376;2023-06-04T04:00:23;14.00;99.90
56374;DHT22;58212;47.034;7.376;2023-06-04T04:02:53;14.00;99.90
56374;DHT22;58212;47.034;7.376;2023-06-04T04:05:26;14.00;99.90
56374;DHT22;58212;47.034;7.376;2023-06-04T04:07:55;14.00;99.90
56374;DHT22;58212;47.034;7.376;2023-06-04T04:10:28;14.00;99.90
56374;DHT22;58212;47.034;7.376;2023-06-04T04:12:55;14.00;99.90
56374;DHT22;58212;47.034;7.376;2023-06-04T04:15:25;14.00;99.90
56374;DHT22;58212;47.034;7.376;2023-06-04T04:17:54;14.10;99.90
56374;DHT22;58212;47.034;7.376;2023-06-04T04:20:24;14.20;99.90
56374;DHT22;58212;47.034;7.376;2023-06-04T04:22:58;14.20;99.90
56374;DHT22;58212;47.034;7.376;2023-06-04T04:25:52;14.30;99.90
56374;DHT22;58212;47.034;7.376;2023-06-04T04:28:19;14.30;99.90
56374;DHT22;58212;47.034;7.376;2023-06-04T04:30:47;14.40;99.90
56374;DHT22;58212;47.034;7.376;2023-06-04T04:33:16;14.40;99.90
56374;DHT22;58212;47.034;7.376;2023-06-04T04:35:45;14.50;99.90
56374;DHT22;58212;47.034;7.376;2023-06-04T04:38:17;14.60;99.90
56374;DHT22;58212;47.034;7.376;2023-06-04T04:40:52;14.80;99.90
56374;DHT22;58212;47.034;7.376;2023-06-04T04:43:30;14.90;99.90
56374;DHT22;58212;47.034;7.376;2023-06-04T04:46:26;15.00;99.90
56374;DHT22;58212;47.034;7.376;2023-06-04T04:48:54;15.10;99.90
56374;DHT22;58212;47.034;7.376;2023-06-04T04:51:21;15.60;99.90
56374;DHT22;58212;47.034;7.376;2023-06-04T04:53:51;17.20;99.90
56374;DHT22;58212;47.034;7.376;2023-06-04T04:56:21;18.60;99.90
56374;DHT22;58212;47.034;7.376;2023-06-04T04:58:49;19.20;99.90
56374;DHT22;58212;47.034;7.376;2023-06-04T05:01:16;19.60;99.90
56374;DHT22;58212;47.034;7.376;2023-06-04T05:03:48;20.00;99.90
56374;DHT22;58212;47.034;7.376;2023-06-04T05:06:16;20.60;99.90
56374;DHT22;58212;47.034;7.376;2023-06-04T05:08:44;21.00;99.90
56374;DHT22;58212;47.034;7.376;2023-06-04T05:11:14;21.50;99.90
56374;DHT22;58212;47.034;7.376;2023-06-04T05:13:44;22.00;99.90
56374;DHT22;58212;47.034;7.376;2023-06-04T05:16:12;22.00;99.90
56374;DHT22;58212;47.034;7.376;2023-06-04T05:18:41;21.90;99.90
56374;DHT22;58212;47.034;7.376;2023-06-04T05:21:18;22.00;99.90
56374;DHT22;58212;47.034;7.376;2023-06-04T05:23:52;22.00;99.90
56374;DHT22;58212;47.034;7.376;2023-06-04T05:26:24;22.60;99.90
56374;DHT22;58212;47.034;7.376;2023-06-04T05:28:54;22.60;99.90
56374;DHT22;58212;47.034;7.376;2023-06-04T05:31:22;22.30;99.90
56374;DHT22;58212;47.034;7.376;2023-06-04T05:33:54;22.00;99.90
56374;DHT22;58212;47.034;7.376;2023-06-04T05:36:22;22.20;99.90
56374;DHT22;58212;47.034;7.376;2023-06-04T05:38:54;22.30;99.90
56374;DHT22;58212;47.034;7.376;2023-06-04T05:41:27;22.10;99.90
56374;DHT22;58212;47.034;7.376;2023-06-04T05:43:54;21.70;99.90
56374;DHT22;58212;47.034;7.376;2023-06-04T05:46:21;20.90;99.90
56374;DHT22;58212;47.034;7.376;2023-06-04T05:48:50;20.00;99.90
56374;DHT22;58212;47.034;7.376;2023-06-04T05:51:18;19.40;99.90
56374;DHT22;58212;47.034;7.376;2023-06-04T05:53:46;19.10;99.90
56374;DHT22;58212;47.034;7.376;2023-06-04T05:56:40;19.00;99.90
56374;DHT22;58212;47.034;7.376;2023-06-04T05:59:32;19.00;99.90
56374;DHT22;58212;47.034;7.376;2023-06-04T06:02:03;19.00;99.90
56374;DHT22;58212;47.034;7.376;2023-06-04T06:04:31;19.10;99.90
56374;DHT22;58212;47.034;7.376;2023-06-04T06:06:57;19.30;99.90
56374;DHT22;58212;47.034;7.376;2023-06-04T06:09:25;19.50;99.90
56374;DHT22;58212;47.034;7.376;2023-06-04T06:11:54;19.70;99.90
56374;DHT22;58212;47.034;7.376;2023-06-04T06:14:21;19.90;99.90
56374;DHT22;58212;47.034;7.376;2023-06-04T06:16:50;20.20;99.90
56374;DHT22;58212;47.034;7.376;2023-06-04T06:19:19;20.20;99.90
56374;DHT22;58212;47.034;7.376;2023-06-04T06:21:46;20.10;99.90
56374;DHT22;58212;47.034;7.376;2023-06-04T06:24:15;20.30;99.90
56374;DHT22;58212;47.034;7.376;2023-06-04T06:26:42;20.50;99.90
56374;DHT22;58212;47.034;7.376;2023-06-04T06:29:13;20.40;99.90
56374;DHT22;58212;47.034;7.376;2023-06-04T06:31:39;20.50;99.90
56374;DHT22;58212;47.034;7.376;2023-06-04T06:34:07;20.60;99.90
56374;DHT22;58212;47.034;7.376;2023-06-04T06:36:33;20.80;99.90
56374;DHT22;58212;47.034;7.376;2023-06-04T06:39:00;20.70;99.90
56374;DHT22;58212;47.034;7.376;2023-06-04T06:41:31;20.70;99.90
56374;DHT22;58212;47.034;7.376;2023-06-04T06:43:57;20.70;99.90
56374;DHT22;58212;47.034;7.376;2023-06-04T06:46:28;20.70;99.90
56374;DHT22;58212;47.034;7.376;2023-06-04T06:48:55;20.80;99.90
56374;DHT22;58212;47.034;7.376;2023-06-04T06:51:23;21.00;99.90
56374;DHT22;58212;47.034;7.376;2023-06-04T06:53:53;21.20;99.90
56374;DHT22;58212;47.034;7.376;2023-06-04T06:56:20;20.60;99.90
56374;DHT22;58212;47.034;7.376;2023-06-04T06:58:48;20.70;99.90
56374;DHT22;58212;47.034;7.376;2023-06-04T07:01:15;20.80;99.90
56374;DHT22;58212;47.034;7.376;2023-06-04T07:03:43;20.70;99.90
56374;DHT22;58212;47.034;7.376;2023-06-04T07:06:10;21.10;99.90
56374;DHT22;58212;47.034;7.376;2023-06-04T07:08:38;21.40;99.90
56374;DHT22;58212;47.034;7.376;2023-06-04T07:11:06;21.40;99.90
56374;DHT22;58212;47.034;7.376;2023-06-04T07:13:38;21.10;99.90
56374;DHT22;58212;47.034;7.376;2023-06-04T07:16:08;21.10;99.90
56374;DHT22;58212;47.034;7.376;2023-06-04T07:18:35;21.50;99.90
56374;DHT22;58212;47.034;7.376;2023-06-04T07:21:04;21.90;99.90
56374;DHT22;58212;47.034;7.376;2023-06-04T07:23:31;21.60;99.90
56374;DHT22;58212;47.034;7.376;2023-06-04T07:26:01;21.30;99.90
56374;DHT22;58212;47.034;7.376;2023-06-04T07:28:28;21.20;99.90
56374;DHT22;58212;47.034;7.376;2023-06-04T07:30:56;21.30;99.90
56374;DHT22;58212;47.034;7.376;2023-06-04T07:33:24;21.00;99.90
56374;DHT22;58212;47.034;7.376;2023-06-04T07:35:51;20.70;99.90
56374;DHT22;58212;47.034;7.376;2023-06-04T07:38:21;21.60;99.90
56374;DHT22;58212;47.034;7.376;2023-06-04T07:40:50;21.80;99.90
56374;DHT22;58212;47.034;7.376;2023-06-04T07:43:17;20.90;99.90
56374;DHT22;58212;47.034;7.376;2023-06-04T07:45:45;21.30;99.90
56374;DHT22;58212;47.034;7.376;2023-06-04T07:48:14;21.70;99.90
56374;DHT22;58212;47.034;7.376;2023-06-04T07:50:42;21.40;99.90
56374;DHT22;58212;47.034;7.376;2023-06-04T07:53:08;21.40;99.90
56374;DHT22;58212;47.034;7.376;2023-06-04T07:55:37;21.20;99.90
56374;DHT22;58212;47.034;7.376;2023-06-04T07:58:05;21.30;99.90
56374;DHT22;58212;47.034;7.376;2023-06-04T08:00:32;21.50;99.90
56374;DHT22;58212;47.034;7.376;2023-06-04T08:02:58;21.30;99.90
56374;DHT22;58212;47.034;7.376;2023-06-04T08:05:29;21.40;99.90
56374;DHT22;58212;47.034;7.376;2023-06-04T08:07:58;21.30;99.90
56374;DHT22;58212;47.034;7.376;2023-06-04T08:10:25;21.10;99.90
56374;DHT22;58212;47.034;7.376;2023-06-04T08:12:54;21.30;99.90
56374;DHT22;58212;47.034;7.376;2023-06-04T08:15:21;21.50;99.90
56374;DHT22;58212;47.034;7.376;2023-06-04T08:17:50;22.00;99.90
56374;DHT22;58212;47.034;7.376;2023-06-04T08:20:17;22.20;99.90
56374;DHT22;58212;47.034;7.376;2023-06-04T08:22:46;21.60;99.90
56374;DHT22;58212;47.034;7.376;2023-06-04T08:25:13;21.80;99.90
56374;DHT22;58212;47.034;7.376;2023-06-04T08:27:41;21.80;99.90
56374;DHT22;58212;47.034;7.376;2023-06-04T08:30:10;22.20;99.90
56374;DHT22;58212;47.034;7.376;2023-06-04T08:32:37;22.40;99.90
56374;DHT22;58212;47.034;7.376;2023-06-04T08:35:06;22.30;99.90
56374;DHT22;58212;47.034;7.376;2023-06-04T08:37:34;22.00;99.90
56374;DHT22;58212;47.034;7.376;2023-06-04T08:40:02;22.30;99.90
56374;DHT22;58212;47.034;7.376;2023-06-04T08:43:01;22.80;99.90
56374;DHT22;58212;47.034;7.376;2023-06-04T08:45:32;22.90;99.90
56374;DHT22;58212;47.034;7.376;2023-06-04T08:48:02;22.70;99.90
56374;DHT22;58212;47.034;7.376;2023-06-04T08:50:31;22.40;99.90
56374;DHT22;58212;47.034;7.376;2023-06-04T08:53:00;22.10;99.90
56374;DHT22;58212;47.034;7.376;2023-06-04T08:55:28;22.50;99.90
56374;DHT22;58212;47.034;7.376;2023-06-04T08:57:54;23.00;99.90
56374;DHT22;58212;47.034;7.376;2023-06-04T09:00:24;22.90;99.90
56374;DHT22;58212;47.034;7.376;2023-06-04T09:02:53;22.30;99.90
56374;DHT22;58212;47.034;7.376;2023-06-04T09:05:21;22.30;99.90
56374;DHT22;58212;47.034;7.376;2023-06-04T09:07:52;22.80;99.90
56374;DHT22;58212;47.034;7.376;2023-06-04T09:10:23;23.30;99.90
56374;DHT22;58212;47.034;7.376;2023-06-04T09:12:52;23.20;99.90
56374;DHT22;58212;47.034;7.376;2023-06-04T09:15:19;23.70;99.90
56374;DHT22;58212;47.034;7.376;2023-06-04T09:17:46;23.10;99.90
56374;DHT22;58212;47.034;7.376;2023-06-04T09:20:22;22.80;99.90
56374;DHT22;58212;47.034;7.376;2023-06-04T09:22:50;23.00;99.90
56374;DHT22;58212;47.034;7.376;2023-06-04T09:25:21;23.70;99.90
56374;DHT22;58212;47.034;7.376;2023-06-04T09:27:49;23.80;99.90
56374;DHT22;58212;47.034;7.376;2023-06-04T09:30:16;23.30;99.90
56374;DHT22;58212;47.034;7.376;2023-06-04T09:32:44;22.90;99.90
56374;DHT22;58212;47.034;7.376;2023-06-04T09:35:13;22.80;99.90
56374;DHT22;58212;47.034;7.376;2023-06-04T09:37:42;23.60;99.90
56374;DHT22;58212;47.034;7.376;2023-06-04T09:40:11;23.50;99.90
56374;DHT22;58212;47.034;7.376;2023-06-04T09:42:42;23.00;99.90
56374;DHT22;58212;47.034;7.376;2023-06-04T09:45:10;22.20;99.90
56374;DHT22;58212;47.034;7.376;2023-06-04T09:47:39;22.60;99.90
56374;DHT22;58212;47.034;7.376;2023-06-04T09:50:08;22.50;99.90
56374;DHT22;58212;47.034;7.376;2023-06-04T09:52:35;23.00;99.90
56374;DHT22;58212;47.034;7.376;2023-06-04T09:55:18;23.00;99.90
56374;DHT22;58212;47.034;7.376;2023-06-04T09:57:47;23.50;99.90
56374;DHT22;58212;47.034;7.376;2023-06-04T10:00:17;23.80;99.90
56374;DHT22;58212;47.034;7.376;2023-06-04T10:02:45;23.80;99.90
56374;DHT22;58212;47.034;7.376;2023-06-04T10:05:13;24.00;99.90
56374;DHT22;58212;47.034;7.376;2023-06-04T10:07:43;24.30;99.90
56374;DHT22;58212;47.034;7.376;2023-06-04T10:10:15;24.10;99.90
56374;DHT22;58212;47.034;7.376;2023-06-04T10:12:43;24.10;99.90
56374;DHT22;58212;47.034;7.376;2023-06-04T10:15:12;24.30;99.90
56374;DHT22;58212;47.034;7.376;2023-06-04T10:17:39;24.40;99.90
56374;DHT22;58212;47.034;7.376;2023-06-04T10:20:07;24.30;99.90
56374;DHT22;58212;47.034;7.376;2023-06-04T10:22:38;23.90;99.90
56374;DHT22;58212;47.034;7.376;2023-06-04T10:25:07;24.10;99.90
56374;DHT22;58212;47.034;7.376;2023-06-04T10:27:37;23.40;99.90
56374;DHT22;58212;47.034;7.376;2023-06-04T10:30:05;23.70;99.90
56374;DHT22;58212;47.034;7.376;2023-06-04T10:32:34;24.00;99.90
56374;DHT22;58212;47.034;7.376;2023-06-04T10:35:03;24.00;99.90
56374;DHT22;58212;47.034;7.376;2023-06-04T10:37:35;24.50;99.90
56374;DHT22;58212;47.034;7.376;2023-06-04T10:40:03;24.60;99.90
56374;DHT22;58212;47.034;7.376;2023-06-04T10:42:40;24.60;99.90
56374;DHT22;58212;47.034;7.376;2023-06-04T10:45:09;24.50;99.90
56374;DHT22;58212;47.034;7.376;2023-06-04T10:47:39;24.80;99.90
56374;DHT22;58212;47.034;7.376;2023-06-04T10:50:08;24.80;99.90
56374;DHT22;58212;47.034;7.376;2023-06-04T10:52:37;24.60;99.90
56374;DHT22;58212;47.034;7.376;2023-06-04T10:55:06;24.50;99.90
56374;DHT22;58212;47.034;7.376;2023-06-04T10:57:34;24.50;99.90
56374;DHT22;58212;47.034;7.376;2023-06-04T11:00:03;24.80;99.90
56374;DHT22;58212;47.034;7.376;2023-06-04T11:02:35;24.80;99.90
56374;DHT22;58212;47.034;7.376;2023-06-04T11:05:04;24.60;99.90
56374;DHT22;58212;47.034;7.376;2023-06-04T11:07:41;24.80;99.90
56374;DHT22;58212;47.034;7.376;2023-06-04T11:10:11;25.00;99.90
56374;DHT22;58212;47.034;7.376;2023-06-04T11:12:43;25.20;99.90
56374;DHT22;58212;47.034;7.376;2023-06-04T11:15:11;25.10;99.90
56374;DHT22;58212;47.034;7.376;2023-06-04T11:17:48;25.30;99.90
56374;DHT22;58212;47.034;7.376;2023-06-04T11:20:41;25.10;99.90
56374;DHT22;58212;47.034;7.376;2023-06-04T11:23:13;25.30;99.90
56374;DHT22;58212;47.034;7.376;2023-06-04T11:25:41;25.20;99.90
56374;DHT22;58212;47.034;7.376;2023-06-04T11:28:15;25.40;99.90
56374;DHT22;58212;47.034;7.376;2023-06-04T11:30:44;25.60;99.90
56374;DHT22;58212;47.034;7.376;2023-06-04T11:33:11;25.40;99.90
56374;DHT22;58212;47.034;7.376;2023-06-04T11:35:42;25.60;99.90
56374;DHT22;58212;47.034;7.376;2023-06-04T11:38:09;25.80;99.90
56374;DHT22;58212;47.034;7.376;2023-06-04T11:40:36;25.80;99.90
56374;DHT22;58212;47.034;7.376;2023-06-04T11:43:04;25.80;99.90
56374;DHT22;58212;47.034;7.376;2023-06-04T11:45:31;25.90;99.90
56374;DHT22;58212;47.034;7.376;2023-06-04T11:48:01;25.90;99.90
56374;DHT22;58212;47.034;7.376;2023-06-04T11:50:31;25.80;99.90
56374;DHT22;58212;47.034;7.376;2023-06-04T11:52:59;25.80;99.90
56374;DHT22;58212;47.034;7.376;2023-06-04T11:55:27;25.20;99.90
56374;DHT22;58212;47.034;7.376;2023-06-04T11:57:55;25.10;99.90
56374;DHT22;58212;47.034;7.376;2023-06-04T12:00:23;24.90;99.90
56374;DHT22;58212;47.034;7.376;2023-06-04T12:02:51;25.40;99.90
56374;DHT22;58212;47.034;7.376;2023-06-04T12:05:31;25.90;99.90
56374;DHT22;58212;47.034;7.376;2023-06-04T12:08:05;25.60;99.90
56374;DHT22;58212;47.034;7.376;2023-06-04T12:10:38;25.10;99.90
56374;DHT22;58212;47.034;7.376;2023-06-04T12:13:05;25.40;99.90
56374;DHT22;58212;47.034;7.376;2023-06-04T12:15:32;25.70;99.90
56374;DHT22;58212;47.034;7.376;2023-06-04T12:18:25;26.00;99.90
56374;DHT22;58212;47.034;7.376;2023-06-04T12:20:55;26.10;99.90
56374;DHT22;58212;47.034;7.376;2023-06-04T12:23:24;25.70;99.90
56374;DHT22;58212;47.034;7.376;2023-06-04T12:25:55;25.70;99.90
56374;DHT22;58212;47.034;7.376;2023-06-04T12:28:22;25.20;99.90
56374;DHT22;58212;47.034;7.376;2023-06-04T12:30:49;25.00;99.90
56374;DHT22;58212;47.034;7.376;2023-06-04T12:33:16;25.30;99.90
56374;DHT22;58212;47.034;7.376;2023-06-04T12:35:43;25.20;99.90
56374;DHT22;58212;47.034;7.376;2023-06-04T12:38:12;25.20;99.90
56374;DHT22;58212;47.034;7.376;2023-06-04T12:40:39;25.00;99.90
56374;DHT22;58212;47.034;7.376;2023-06-04T12:43:06;25.20;99.90
56374;DHT22;58212;47.034;7.376;2023-06-04T12:45:34;25.00;99.90
56374;DHT22;58212;47.034;7.376;2023-06-04T12:48:03;25.00;99.90
56374;DHT22;58212;47.034;7.376;2023-06-04T12:50:30;24.90;99.90
56374;DHT22;58212;47.034;7.376;2023-06-04T12:52:57;24.60;99.90
56374;DHT22;58212;47.034;7.376;2023-06-04T12:55:26;24.60;99.90
56374;DHT22;58212;47.034;7.376;2023-06-04T12:57:54;24.70;99.90
56374;DHT22;58212;47.034;7.376;2023-06-04T13:00:21;24.70;99.90
56374;DHT22;58212;47.034;7.376;2023-06-04T13:02:52;24.50;99.90
56374;DHT22;58212;47.034;7.376;2023-06-04T13:05:19;24.40;99.90
56374;DHT22;58212;47.034;7.376;2023-06-04T13:07:53;24.50;99.90
56374;DHT22;58212;47.034;7.376;2023-06-04T13:10:21;24.20;99.90
56374;DHT22;58212;47.034;7.376;2023-06-04T13:12:50;24.40;99.90
56374;DHT22;58212;47.034;7.376;2023-06-04T13:15:17;24.50;99.90
56374;DHT22;58212;47.034;7.376;2023-06-04T13:17:44;24.40;99.90
56374;DHT22;58212;47.034;7.376;2023-06-04T13:20:12;24.30;99.90
56374;DHT22;58212;47.034;7.376;2023-06-04T13:22:39;24.50;99.90
56374;DHT22;58212;47.034;7.376;2023-06-04T13:25:09;24.50;99.90
56374;DHT22;58212;47.034;7.376;2023-06-04T13:27:37;24.50;99.90
56374;DHT22;58212;47.034;7.376;2023-06-04T13:30:06;24.30;99.90
56374;DHT22;58212;47.034;7.376;2023-06-04T13:32:33;24.20;99.90
56374;DHT22;58212;47.034;7.376;2023-06-04T13:35:02;24.20;99.90
56374;DHT22;58212;47.034;7.376;2023-06-04T13:37:29;24.30;99.90
56374;DHT22;58212;47.034;7.376;2023-06-04T13:39:57;24.30;99.90
56374;DHT22;58212;47.034;7.376;2023-06-04T13:42:24;24.30;99.90
56374;DHT22;58212;47.034;7.376;2023-06-04T13:44:52;24.40;99.90
56374;DHT22;58212;47.034;7.376;2023-06-04T13:47:21;24.40;99.90
56374;DHT22;58212;47.034;7.376;2023-06-04T13:49:48;24.30;99.90
56374;DHT22;58212;47.034;7.376;2023-06-04T13:52:15;24.20;99.90
56374;DHT22;58212;47.034;7.376;2023-06-04T13:54:43;24.20;99.90
56374;DHT22;58212;47.034;7.376;2023-06-04T13:57:10;24.30;99.90
56374;DHT22;58212;47.034;7.376;2023-06-04T13:59:37;24.20;99.90
56374;DHT22;58212;47.034;7.376;2023-06-04T14:02:30;24.30;99.90
56374;DHT22;58212;47.034;7.376;2023-06-04T14:04:57;24.30;99.90
56374;DHT22;58212;47.034;7.376;2023-06-04T14:07:25;24.30;99.90
56374;DHT22;58212;47.034;7.376;2023-06-04T14:09:52;24.30;99.90
56374;DHT22;58212;47.034;7.376;2023-06-04T14:12:21;24.30;99.90
56374;DHT22;58212;47.034;7.376;2023-06-04T14:14:50;24.40;99.90
56374;DHT22;58212;47.034;7.376;2023-06-04T14:17:18;24.30;99.90
56374;DHT22;58212;47.034;7.376;2023-06-04T14:19:47;24.50;99.90
56374;DHT22;58212;47.034;7.376;2023-06-04T14:22:15;24.30;99.90
56374;DHT22;58212;47.034;7.376;2023-06-04T14:24:42;24.40;99.90
56374;DHT22;58212;47.034;7.376;2023-06-04T14:27:09;24.50;99.90
56374;DHT22;58212;47.034;7.376;2023-06-04T14:29:36;24.60;99.90
56374;DHT22;58212;47.034;7.376;2023-06-04T14:32:04;24.80;99.90
56374;DHT22;58212;47.034;7.376;2023-06-04T14:34:58;24.90;99.90
56374;DHT22;58212;47.034;7.376;2023-06-04T14:37:25;24.80;99.90
56374;DHT22;58212;47.034;7.376;2023-06-04T14:39:52;25.00;99.90
56374;DHT22;58212;47.034;7.376;2023-06-04T14:42:19;25.00;99.90
56374;DHT22;58212;47.034;7.376;2023-06-04T14:44:46;24.90;99.90
56374;DHT22;58212;47.034;7.376;2023-06-04T14:47:14;25.10;99.90
56374;DHT22;58212;47.034;7.376;2023-06-04T14:49:42;25.10;99.90
56374;DHT22;58212;47.034;7.376;2023-06-04T14:52:11;25.30;99.90
56374;DHT22;58212;47.034;7.376;2023-06-04T14:54:39;25.40;99.90
56374;DHT22;58212;47.034;7.376;2023-06-04T14:57:06;25.10;99.90
56374;DHT22;58212;47.034;7.376;2023-06-04T14:59:36;25.10;99.90
56374;DHT22;58212;47.034;7.376;2023-06-04T15:02:05;25.20;99.90
56374;DHT22;58212;47.034;7.376;2023-06-04T15:04:32;25.20;99.90
56374;DHT22;58212;47.034;7.376;2023-06-04T15:07:01;25.20;99.90
56374;DHT22;58212;47.034;7.376;2023-06-04T15:09:29;25.10;99.90
56374;DHT22;58212;47.034;7.376;2023-06-04T15:11:58;24.90;99.90
56374;DHT22;58212;47.034;7.376;2023-06-04T15:14:25;24.60;99.90
56374;DHT22;58212;47.034;7.376;2023-06-04T15:16:52;24.30;99.90
56374;DHT22;58212;47.034;7.376;2023-06-04T15:19:19;24.60;99.90
56374;DHT22;58212;47.034;7.376;2023-06-04T15:21:47;25.00;99.90
56374;DHT22;58212;47.034;7.376;2023-06-04T15:24:14;25.00;99.90
56374;DHT22;58212;47.034;7.376;2023-06-04T15:26:43;24.90;99.90
56374;DHT22;58212;47.034;7.376;2023-06-04T15:29:13;24.80;99.90
56374;DHT22;58212;47.034;7.376;2023-06-04T15:32:05;24.70;99.90
56374;DHT22;58212;47.034;7.376;2023-06-04T15:34:32;24.70;99.90
56374;DHT22;58212;47.034;7.376;2023-06-04T15:36:59;24.70;99.80
56374;DHT22;58212;47.034;7.376;2023-06-04T15:39:27;24.80;99.90
56374;DHT22;58212;47.034;7.376;2023-06-04T15:41:55;25.10;99.90
56374;DHT22;58212;47.034;7.376;2023-06-04T15:44:22;25.10;99.50
56374;DHT22;58212;47.034;7.376;2023-06-04T15:46:50;25.00;99.50
56374;DHT22;58212;47.034;7.376;2023-06-04T15:49:17;25.10;99.90